createdAt,value
2019-02-03T11:25:53.320Z,1012.69
2019-02-03T11:26:28.461Z,1012.72
2019-02-03T11:27:03.773Z,1012.69
2019-02-03T11:27:39.037Z,1012.71
2019-02-03T11:28:14.937Z,1012.73
2019-02-03T11:28:50.019Z,1012.74
2019-02-03T11:29:25.212Z,1012.73
2019-02-03T11:30:00.697Z,1012.73
2019-02-03T11:30:36.107Z,1012.72
2019-02-03T11:31:11.441Z,1012.77
2019-02-03T11:31:46.937Z,1012.75
2019-02-03T11:32:22.279Z,1012.74
2019-02-03T11:33:04.784Z,1012.76
2019-02-03T11:33:32.905Z,1012.76
2019-02-03T11:34:08.383Z,1012.77
2019-02-03T11:34:43.604Z,1012.76
2019-02-03T11:35:18.903Z,1012.78
2019-02-03T11:35:54.289Z,1012.78
2019-02-03T11:36:29.609Z,1012.79
2019-02-03T11:37:04.993Z,1012.82
2019-02-03T11:37:40.062Z,1012.76
2019-02-03T11:38:15.787Z,1012.82
2019-02-03T11:38:51.253Z,1012.80
2019-02-03T11:39:26.667Z,1012.83
2019-02-03T11:40:02.348Z,1012.80
2019-02-03T11:40:37.958Z,1012.77
2019-02-03T11:41:13.170Z,1012.82
2019-02-03T11:41:49.466Z,1012.85
2019-02-03T11:42:23.609Z,1012.82
2019-02-03T11:42:58.896Z,1012.78
2019-02-03T11:43:34.300Z,1012.81
2019-02-03T11:44:09.777Z,1012.83
2019-02-03T11:44:45.191Z,1012.81
2019-02-03T11:45:20.569Z,1012.82
2019-02-03T11:45:55.902Z,1012.85
2019-02-03T11:46:31.317Z,1012.84
2019-02-03T11:47:06.340Z,1012.84
2019-02-03T11:47:41.957Z,1012.86
2019-02-03T11:48:17.496Z,1012.83
2019-02-03T11:48:52.853Z,1012.83
2019-02-03T11:49:28.144Z,1012.86
2019-02-03T11:50:03.443Z,1012.87
2019-02-03T11:50:38.850Z,1012.88
2019-02-03T11:51:14.453Z,1012.93
2019-02-03T11:51:49.761Z,1012.89
2019-02-03T11:52:25.190Z,1012.95
2019-02-03T11:53:00.427Z,1012.93
2019-02-03T11:53:35.754Z,1012.96
2019-02-03T11:54:10.962Z,1012.95
2019-02-03T11:54:46.264Z,1012.99
2019-02-03T11:55:21.680Z,1012.97
2019-02-03T11:55:56.865Z,1012.97
2019-02-03T11:56:32.110Z,1013.02
2019-02-03T11:57:07.431Z,1013.00
2019-02-03T11:57:42.638Z,1013.03
2019-02-03T11:58:17.703Z,1013.03
2019-02-03T11:58:52.813Z,1013.04
2019-02-03T11:59:28.221Z,1013.05
2019-02-03T12:00:03.507Z,1013.08
2019-02-03T12:00:38.906Z,1013.10
2019-02-03T12:01:16.486Z,1013.07
2019-02-03T12:01:49.852Z,1013.10
2019-02-03T12:02:25.245Z,1013.05
2019-02-03T12:03:00.527Z,1013.06
2019-02-03T12:03:36.040Z,1013.08
2019-02-03T12:04:11.254Z,1013.09
2019-02-03T12:04:46.457Z,1013.10
2019-02-03T12:05:21.726Z,1013.11
2019-02-03T12:05:57.126Z,1013.12
2019-02-03T12:06:32.515Z,1013.11
2019-02-03T12:07:08.002Z,1013.11
2019-02-03T12:07:43.201Z,1013.13
2019-02-03T12:08:18.501Z,1013.15
2019-02-03T12:08:53.810Z,1013.12
2019-02-03T12:09:29.136Z,1013.13
2019-02-03T12:10:04.744Z,1013.13
2019-02-03T12:10:40.352Z,1013.12
2019-02-03T12:11:15.761Z,1013.15
2019-02-03T12:12:00.806Z,1013.12
2019-02-03T12:12:26.187Z,1013.14
2019-02-03T12:13:01.474Z,1013.15
2019-02-03T12:13:37.335Z,1013.15
2019-02-03T12:14:12.500Z,1013.14
2019-02-03T12:14:47.949Z,1013.16
2019-02-03T12:15:23.267Z,1013.14
2019-02-03T12:15:58.539Z,1013.14
2019-02-03T12:16:34.150Z,1013.13
2019-02-03T12:17:09.743Z,1013.13
2019-02-03T12:17:45.253Z,1013.11
2019-02-03T12:18:20.597Z,1013.11
2019-02-03T12:18:55.844Z,1013.14
2019-02-03T12:19:31.430Z,1013.13
2019-02-03T12:20:07.141Z,1013.18
2019-02-03T12:20:42.552Z,1013.15
2019-02-03T12:21:17.972Z,1013.17
2019-02-03T12:21:53.248Z,1013.15
2019-02-03T12:22:28.839Z,1013.16
2019-02-03T12:23:04.327Z,1013.12
2019-02-03T12:23:39.523Z,1013.16
2019-02-03T12:24:14.913Z,1013.20
2019-02-03T12:24:50.430Z,1013.18
2019-02-03T12:25:25.703Z,1013.17
2019-02-03T12:26:00.947Z,1013.15
2019-02-03T12:26:36.632Z,1013.16
2019-02-03T12:27:11.276Z,1013.22
2019-02-03T12:27:46.662Z,1013.20
2019-02-03T12:28:22.264Z,1013.23
2019-02-03T12:28:57.587Z,1013.22
2019-02-03T12:29:32.767Z,1013.22
2019-02-03T12:30:08.092Z,1013.23
2019-02-03T12:30:43.392Z,1013.20
2019-02-03T12:31:19.020Z,1013.23
2019-02-03T12:31:54.213Z,1013.21
2019-02-03T12:32:29.852Z,1013.22
2019-02-03T12:33:05.238Z,1013.23
2019-02-03T12:33:40.838Z,1013.19
2019-02-03T12:34:16.051Z,1013.24
2019-02-03T12:34:51.640Z,1013.23
2019-02-03T12:35:26.965Z,1013.19
2019-02-03T12:36:02.144Z,1013.22
2019-02-03T12:36:39.880Z,1013.22
2019-02-03T12:37:12.811Z,1013.20
2019-02-03T12:37:48.376Z,1013.20
2019-02-03T12:38:23.521Z,1013.21
2019-02-03T12:38:58.901Z,1013.23
2019-02-03T12:39:34.221Z,1013.19
2019-02-03T12:40:09.799Z,1013.20
2019-02-03T12:40:45.105Z,1013.25
2019-02-03T12:41:20.691Z,1013.22
2019-02-03T12:41:56.399Z,1013.26
2019-02-03T12:42:32.325Z,1013.25
2019-02-03T12:43:07.444Z,1013.28
2019-02-03T12:43:42.941Z,1013.27
2019-02-03T12:44:18.379Z,1013.29
2019-02-03T12:44:53.595Z,1013.28
2019-02-03T12:45:28.983Z,1013.27
2019-02-03T12:46:04.484Z,1013.29
2019-02-03T12:46:39.959Z,1013.27
2019-02-03T12:47:15.380Z,1013.29
2019-02-03T12:47:50.687Z,1013.33
2019-02-03T12:48:25.921Z,1013.32
2019-02-03T12:49:01.441Z,1013.32
2019-02-03T12:49:36.756Z,1013.29
2019-02-03T12:50:11.957Z,1013.28
2019-02-03T12:50:47.643Z,1013.34
2019-02-03T12:51:22.961Z,1013.28
2019-02-03T12:51:58.259Z,1013.30
2019-02-03T12:52:33.920Z,1013.31
2019-02-03T12:53:09.347Z,1013.32
2019-02-03T12:53:44.823Z,1013.32
2019-02-03T12:54:20.133Z,1013.34
2019-02-03T12:54:55.431Z,1013.33
2019-02-03T12:55:30.844Z,1013.33
2019-02-03T12:56:06.337Z,1013.36
2019-02-03T12:56:41.656Z,1013.34
